sensor_id;sensor_type;location;lat;lon;timestamp;temperature;humidity
28654;DHT22;24320;56.980;24.336;2024-03-02T00:00:14;3.40;99.90
28654;DHT22;24320;56.980;24.336;2024-03-02T00:02:45;3.40;99.90
28654;DHT22;24320;56.980;24.336;2024-03-02T00:05:17;3.40;99.90
28654;DHT22;24320;56.980;24.336;2024-03-02T00:07:46;3.40;99.90
28654;DHT22;24320;56.980;24.336;2024-03-02T00:10:16;3.40;99.90
28654;DHT22;24320;56.980;24.336;2024-03-02T00:12:47;3.30;99.90
28654;DHT22;24320;56.980;24.336;2024-03-02T00:18:10;3.20;99.90
28654;DHT22;24320;56.980;24.336;2024-03-02T00:20:38;3.40;99.90
28654;DHT22;24320;56.980;24.336;2024-03-02T00:23:06;3.40;99.90
28654;DHT22;24320;56.980;24.336;2024-03-02T00:25:52;3.50;99.90
28654;DHT22;24320;56.980;24.336;2024-03-02T00:28:24;3.40;99.90
28654;DHT22;24320;56.980;24.336;2024-03-02T00:31:06;3.40;99.90
28654;DHT22;24320;56.980;24.336;2024-03-02T00:33:44;3.40;99.90
28654;DHT22;24320;56.980;24.336;2024-03-02T00:36:16;3.40;99.90
28654;DHT22;24320;56.980;24.336;2024-03-02T00:38:48;3.30;99.90
28654;DHT22;24320;56.980;24.336;2024-03-02T00:41:25;3.30;99.90
28654;DHT22;24320;56.980;24.336;2024-03-02T00:46:37;3.30;99.90
28654;DHT22;24320;56.980;24.336;2024-03-02T00:49:26;3.30;99.90
28654;DHT22;24320;56.980;24.336;2024-03-02T00:51:54;3.30;99.90
28654;DHT22;24320;56.980;24.336;2024-03-02T00:54:23;3.30;99.90
28654;DHT22;24320;56.980;24.336;2024-03-02T00:56:52;3.30;99.90
28654;DHT22;24320;56.980;24.336;2024-03-02T00:59:22;3.30;99.90
28654;DHT22;24320;56.980;24.336;2024-03-02T01:01:49;3.20;99.90
28654;DHT22;24320;56.980;24.336;2024-03-02T01:04:18;3.20;99.90
28654;DHT22;24320;56.980;24.336;2024-03-02T01:06:45;3.20;99.90
28654;DHT22;24320;56.980;24.336;2024-03-02T01:09:12;3.10;99.90
28654;DHT22;24320;56.980;24.336;2024-03-02T01:11:39;3.10;99.90
28654;DHT22;24320;56.980;24.336;2024-03-02T01:14:06;3.10;99.90
28654;DHT22;24320;56.980;24.336;2024-03-02T01:16:33;3.10;99.90
28654;DHT22;24320;56.980;24.336;2024-03-02T01:19:01;3.10;99.90
28654;DHT22;24320;56.980;24.336;2024-03-02T01:21:28;3.10;99.90
28654;DHT22;24320;56.980;24.336;2024-03-02T01:23:55;3.10;99.90
28654;DHT22;24320;56.980;24.336;2024-03-02T01:26:21;3.00;99.90
28654;DHT22;24320;56.980;24.336;2024-03-02T01:28:48;3.00;99.90
28654;DHT22;24320;56.980;24.336;2024-03-02T01:31:15;3.00;99.90
28654;DHT22;24320;56.980;24.336;2024-03-02T01:33:42;2.90;99.90
28654;DHT22;24320;56.980;24.336;2024-03-02T01:36:09;2.90;99.90
28654;DHT22;24320;56.980;24.336;2024-03-02T01:38:36;2.90;99.90
28654;DHT22;24320;56.980;24.336;2024-03-02T01:41:03;2.90;99.90
28654;DHT22;24320;56.980;24.336;2024-03-02T01:43:30;3.00;99.90
28654;DHT22;24320;56.980;24.336;2024-03-02T01:45:57;3.00;99.90
28654;DHT22;24320;56.980;24.336;2024-03-02T01:48:25;3.00;99.90
28654;DHT22;24320;56.980;24.336;2024-03-02T01:50:52;2.90;99.90
28654;DHT22;24320;56.980;24.336;2024-03-02T01:53:19;2.90;99.90
28654;DHT22;24320;56.980;24.336;2024-03-02T01:55:46;2.80;99.90
28654;DHT22;24320;56.980;24.336;2024-03-02T01:58:13;2.80;99.90
28654;DHT22;24320;56.980;24.336;2024-03-02T02:00:40;2.80;99.90
28654;DHT22;24320;56.980;24.336;2024-03-02T02:03:07;2.90;99.90
28654;DHT22;24320;56.980;24.336;2024-03-02T02:05:35;2.90;99.90
28654;DHT22;24320;56.980;24.336;2024-03-02T02:08:02;2.90;99.90
28654;DHT22;24320;56.980;24.336;2024-03-02T02:10:29;2.90;99.90
28654;DHT22;24320;56.980;24.336;2024-03-02T02:12:56;2.80;99.90
28654;DHT22;24320;56.980;24.336;2024-03-02T02:17:50;2.80;99.90
28654;DHT22;24320;56.980;24.336;2024-03-02T02:20:17;2.70;99.90
28654;DHT22;24320;56.980;24.336;2024-03-02T02:23:02;2.70;99.90
28654;DHT22;24320;56.980;24.336;2024-03-02T02:25:30;2.70;99.90
28654;DHT22;24320;56.980;24.336;2024-03-02T02:27:57;2.70;99.90
28654;DHT22;24320;56.980;24.336;2024-03-02T02:30:27;2.70;99.90
28654;DHT22;24320;56.980;24.336;2024-03-02T02:32:55;2.70;99.90
28654;DHT22;24320;56.980;24.336;2024-03-02T02:35:22;2.70;99.90
28654;DHT22;24320;56.980;24.336;2024-03-02T02:37:52;2.60;99.90
28654;DHT22;24320;56.980;24.336;2024-03-02T02:40:20;2.60;99.90
28654;DHT22;24320;56.980;24.336;2024-03-02T02:42:47;2.60;99.90
28654;DHT22;24320;56.980;24.336;2024-03-02T02:45:14;2.60;99.90
28654;DHT22;24320;56.980;24.336;2024-03-02T02:47:42;2.60;99.90
28654;DHT22;24320;56.980;24.336;2024-03-02T02:50:10;2.50;99.90
28654;DHT22;24320;56.980;24.336;2024-03-02T02:52:39;2.50;99.90
28654;DHT22;24320;56.980;24.336;2024-03-02T02:55:11;2.50;99.90
28654;DHT22;24320;56.980;24.336;2024-03-02T02:57:42;2.50;99.90
28654;DHT22;24320;56.980;24.336;2024-03-02T03:00:14;2.50;99.90
28654;DHT22;24320;56.980;24.336;2024-03-02T03:02:46;2.40;99.90
28654;DHT22;24320;56.980;24.336;2024-03-02T03:05:15;2.40;99.90
28654;DHT22;24320;56.980;24.336;2024-03-02T03:07:43;2.50;99.90
28654;DHT22;24320;56.980;24.336;2024-03-02T03:10:11;2.50;99.90
28654;DHT22;24320;56.980;24.336;2024-03-02T03:12:38;2.40;99.90
28654;DHT22;24320;56.980;24.336;2024-03-02T03:15:08;2.40;99.90
28654;DHT22;24320;56.980;24.336;2024-03-02T03:17:36;2.40;99.90
28654;DHT22;24320;56.980;24.336;2024-03-02T03:20:04;2.40;99.90
28654;DHT22;24320;56.980;24.336;2024-03-02T03:22:32;2.40;99.90
28654;DHT22;24320;56.980;24.336;2024-03-02T03:24:59;2.40;99.90
28654;DHT22;24320;56.980;24.336;2024-03-02T03:27:27;2.40;99.90
28654;DHT22;24320;56.980;24.336;2024-03-02T03:29:54;2.30;99.90
28654;DHT22;24320;56.980;24.336;2024-03-02T03:32:21;2.30;99.90
28654;DHT22;24320;56.980;24.336;2024-03-02T03:34:48;2.30;99.90
28654;DHT22;24320;56.980;24.336;2024-03-02T03:37:15;2.30;99.90
28654;DHT22;24320;56.980;24.336;2024-03-02T03:39:42;2.30;99.90
28654;DHT22;24320;56.980;24.336;2024-03-02T03:42:09;2.30;99.90
28654;DHT22;24320;56.980;24.336;2024-03-02T03:44:36;2.30;99.90
28654;DHT22;24320;56.980;24.336;2024-03-02T03:47:03;2.30;99.90
28654;DHT22;24320;56.980;24.336;2024-03-02T03:49:30;2.30;99.90
28654;DHT22;24320;56.980;24.336;2024-03-02T03:51:57;2.20;99.90
28654;DHT22;24320;56.980;24.336;2024-03-02T03:54:24;2.30;99.90
28654;DHT22;24320;56.980;24.336;2024-03-02T03:56:51;2.30;99.90
28654;DHT22;24320;56.980;24.336;2024-03-02T03:59:18;2.30;99.90
28654;DHT22;24320;56.980;24.336;2024-03-02T04:01:45;2.30;99.90
28654;DHT22;24320;56.980;24.336;2024-03-02T04:04:12;2.30;99.90
28654;DHT22;24320;56.980;24.336;2024-03-02T04:06:39;2.30;99.90
28654;DHT22;24320;56.980;24.336;2024-03-02T04:09:06;2.30;99.90
28654;DHT22;24320;56.980;24.336;2024-03-02T04:11:33;2.40;99.90
28654;DHT22;24320;56.980;24.336;2024-03-02T04:14:01;2.40;99.90
28654;DHT22;24320;56.980;24.336;2024-03-02T04:16:28;2.30;99.90
28654;DHT22;24320;56.980;24.336;2024-03-02T04:18:57;2.40;99.90
28654;DHT22;24320;56.980;24.336;2024-03-02T04:21:24;2.30;99.90
28654;DHT22;24320;56.980;24.336;2024-03-02T04:23:51;2.30;99.90
28654;DHT22;24320;56.980;24.336;2024-03-02T04:26:19;2.40;99.90
28654;DHT22;24320;56.980;24.336;2024-03-02T04:28:48;2.40;99.90
28654;DHT22;24320;56.980;24.336;2024-03-02T04:31:15;2.30;99.90
28654;DHT22;24320;56.980;24.336;2024-03-02T04:33:43;2.30;99.90
28654;DHT22;24320;56.980;24.336;2024-03-02T04:36:10;2.30;99.90
28654;DHT22;24320;56.980;24.336;2024-03-02T04:38:40;2.40;99.90
28654;DHT22;24320;56.980;24.336;2024-03-02T04:41:07;2.30;99.90
28654;DHT22;24320;56.980;24.336;2024-03-02T04:43:34;2.30;99.90
28654;DHT22;24320;56.980;24.336;2024-03-02T04:46:01;2.40;99.90
28654;DHT22;24320;56.980;24.336;2024-03-02T04:48:29;2.40;99.90
28654;DHT22;24320;56.980;24.336;2024-03-02T04:50:56;2.40;99.90
28654;DHT22;24320;56.980;24.336;2024-03-02T04:53:23;2.40;99.90
28654;DHT22;24320;56.980;24.336;2024-03-02T04:55:50;2.40;99.90
28654;DHT22;24320;56.980;24.336;2024-03-02T04:58:35;2.50;99.90
28654;DHT22;24320;56.980;24.336;2024-03-02T05:01:02;2.50;99.90
28654;DHT22;24320;56.980;24.336;2024-03-02T05:03:29;2.50;99.90
28654;DHT22;24320;56.980;24.336;2024-03-02T05:05:56;2.50;99.90
28654;DHT22;24320;56.980;24.336;2024-03-02T05:08:23;2.50;99.90
28654;DHT22;24320;56.980;24.336;2024-03-02T05:10:50;2.50;99.90
28654;DHT22;24320;56.980;24.336;2024-03-02T05:13:17;2.50;99.90
28654;DHT22;24320;56.980;24.336;2024-03-02T05:15:44;2.50;99.90
28654;DHT22;24320;56.980;24.336;2024-03-02T05:18:11;2.50;99.90
28654;DHT22;24320;56.980;24.336;2024-03-02T05:20:38;2.50;99.90
28654;DHT22;24320;56.980;24.336;2024-03-02T05:23:05;2.50;99.90
28654;DHT22;24320;56.980;24.336;2024-03-02T05:25:32;2.50;99.90
28654;DHT22;24320;56.980;24.336;2024-03-02T05:27:59;2.60;99.90
28654;DHT22;24320;56.980;24.336;2024-03-02T05:30:26;2.60;99.90
28654;DHT22;24320;56.980;24.336;2024-03-02T05:32:55;2.60;99.90
28654;DHT22;24320;56.980;24.336;2024-03-02T05:35:22;2.70;99.90
28654;DHT22;24320;56.980;24.336;2024-03-02T05:37:49;2.70;99.90
28654;DHT22;24320;56.980;24.336;2024-03-02T05:40:17;2.70;99.90
28654;DHT22;24320;56.980;24.336;2024-03-02T05:42:47;2.70;99.90
28654;DHT22;24320;56.980;24.336;2024-03-02T05:45:14;2.80;99.90
28654;DHT22;24320;56.980;24.336;2024-03-02T05:47:43;2.80;99.90
28654;DHT22;24320;56.980;24.336;2024-03-02T05:50:10;2.90;99.90
28654;DHT22;24320;56.980;24.336;2024-03-02T05:52:37;2.90;99.90
28654;DHT22;24320;56.980;24.336;2024-03-02T05:55:04;3.00;99.90
28654;DHT22;24320;56.980;24.336;2024-03-02T05:57:31;3.00;99.90
28654;DHT22;24320;56.980;24.336;2024-03-02T06:00:12;3.00;99.90
28654;DHT22;24320;56.980;24.336;2024-03-02T06:02:40;3.10;99.90
28654;DHT22;24320;56.980;24.336;2024-03-02T06:05:07;3.20;99.90
28654;DHT22;24320;56.980;24.336;2024-03-02T06:07:34;3.20;99.90
28654;DHT22;24320;56.980;24.336;2024-03-02T06:10:01;3.30;99.90
28654;DHT22;24320;56.980;24.336;2024-03-02T06:12:28;3.30;99.90
28654;DHT22;24320;56.980;24.336;2024-03-02T06:14:55;3.40;99.90
28654;DHT22;24320;56.980;24.336;2024-03-02T06:17:22;3.40;99.90
28654;DHT22;24320;56.980;24.336;2024-03-02T06:19:49;3.50;99.90
28654;DHT22;24320;56.980;24.336;2024-03-02T06:22:16;3.60;99.90
28654;DHT22;24320;56.980;24.336;2024-03-02T06:24:44;3.70;99.90
28654;DHT22;24320;56.980;24.336;2024-03-02T06:27:12;3.80;99.90
28654;DHT22;24320;56.980;24.336;2024-03-02T06:29:39;3.90;99.90
28654;DHT22;24320;56.980;24.336;2024-03-02T06:32:06;4.10;99.90
28654;DHT22;24320;56.980;24.336;2024-03-02T06:34:35;4.30;99.90
28654;DHT22;24320;56.980;24.336;2024-03-02T06:37:02;4.60;99.90
28654;DHT22;24320;56.980;24.336;2024-03-02T06:39:30;4.70;99.90
28654;DHT22;24320;56.980;24.336;2024-03-02T06:42:01;4.90;99.90
28654;DHT22;24320;56.980;24.336;2024-03-02T06:44:30;5.10;99.90
28654;DHT22;24320;56.980;24.336;2024-03-02T06:46:57;5.20;99.90
28654;DHT22;24320;56.980;24.336;2024-03-02T06:49:25;5.50;99.90
28654;DHT22;24320;56.980;24.336;2024-03-02T06:51:53;5.70;99.90
28654;DHT22;24320;56.980;24.336;2024-03-02T06:54:21;5.80;99.90
28654;DHT22;24320;56.980;24.336;2024-03-02T06:56:50;6.00;99.90
28654;DHT22;24320;56.980;24.336;2024-03-02T06:59:17;6.20;99.90
28654;DHT22;24320;56.980;24.336;2024-03-02T07:01:48;6.40;99.90
28654;DHT22;24320;56.980;24.336;2024-03-02T07:04:17;6.60;99.90
28654;DHT22;24320;56.980;24.336;2024-03-02T07:06:45;6.80;99.90
28654;DHT22;24320;56.980;24.336;2024-03-02T07:09:14;7.00;99.90
28654;DHT22;24320;56.980;24.336;2024-03-02T07:11:43;7.10;99.90
28654;DHT22;24320;56.980;24.336;2024-03-02T07:14:10;7.10;99.90
28654;DHT22;24320;56.980;24.336;2024-03-02T07:16:40;7.00;99.90
28654;DHT22;24320;56.980;24.336;2024-03-02T07:19:10;7.20;99.90
28654;DHT22;24320;56.980;24.336;2024-03-02T07:21:39;7.30;99.90
28654;DHT22;24320;56.980;24.336;2024-03-02T07:24:07;7.40;99.90
28654;DHT22;24320;56.980;24.336;2024-03-02T07:26:39;7.50;99.90
28654;DHT22;24320;56.980;24.336;2024-03-02T07:29:10;7.70;99.90
28654;DHT22;24320;56.980;24.336;2024-03-02T07:31:39;7.60;99.90
28654;DHT22;24320;56.980;24.336;2024-03-02T07:34:06;7.40;99.90
28654;DHT22;24320;56.980;24.336;2024-03-02T07:36:35;7.40;99.90
28654;DHT22;24320;56.980;24.336;2024-03-02T07:39:03;7.50;99.90
28654;DHT22;24320;56.980;24.336;2024-03-02T07:41:30;7.70;99.90
28654;DHT22;24320;56.980;24.336;2024-03-02T07:43:57;7.90;99.90
28654;DHT22;24320;56.980;24.336;2024-03-02T07:46:24;8.10;99.90
28654;DHT22;24320;56.980;24.336;2024-03-02T07:48:52;8.40;99.90
28654;DHT22;24320;56.980;24.336;2024-03-02T07:51:21;8.40;99.90
28654;DHT22;24320;56.980;24.336;2024-03-02T07:53:50;8.60;99.90
28654;DHT22;24320;56.980;24.336;2024-03-02T07:56:19;8.70;99.90
28654;DHT22;24320;56.980;24.336;2024-03-02T07:58:49;8.70;99.90
28654;DHT22;24320;56.980;24.336;2024-03-02T08:01:16;8.50;99.90
28654;DHT22;24320;56.980;24.336;2024-03-02T08:03:44;8.30;99.90
28654;DHT22;24320;56.980;24.336;2024-03-02T08:06:15;8.30;99.90
28654;DHT22;24320;56.980;24.336;2024-03-02T08:08:42;8.10;99.90
28654;DHT22;24320;56.980;24.336;2024-03-02T08:11:10;7.90;99.90
28654;DHT22;24320;56.980;24.336;2024-03-02T08:13:38;7.90;99.90
28654;DHT22;24320;56.980;24.336;2024-03-02T08:16:07;7.90;99.90
28654;DHT22;24320;56.980;24.336;2024-03-02T08:18:36;7.90;99.90
28654;DHT22;24320;56.980;24.336;2024-03-02T08:21:04;7.80;99.90
28654;DHT22;24320;56.980;24.336;2024-03-02T08:23:31;7.70;99.90
28654;DHT22;24320;56.980;24.336;2024-03-02T08:25:58;7.80;99.90
28654;DHT22;24320;56.980;24.336;2024-03-02T08:28:25;7.80;99.90
28654;DHT22;24320;56.980;24.336;2024-03-02T08:30:52;7.70;99.90
28654;DHT22;24320;56.980;24.336;2024-03-02T08:33:19;7.50;99.90
28654;DHT22;24320;56.980;24.336;2024-03-02T08:35:46;7.40;99.90
28654;DHT22;24320;56.980;24.336;2024-03-02T08:38:13;7.30;99.90
28654;DHT22;24320;56.980;24.336;2024-03-02T08:40:41;7.10;99.90
28654;DHT22;24320;56.980;24.336;2024-03-02T08:43:08;7.10;99.90
28654;DHT22;24320;56.980;24.336;2024-03-02T08:45:35;7.20;99.90
28654;DHT22;24320;56.980;24.336;2024-03-02T08:48:03;7.20;99.90
28654;DHT22;24320;56.980;24.336;2024-03-02T08:50:30;7.30;99.90
28654;DHT22;24320;56.980;24.336;2024-03-02T08:52:57;7.30;99.90
28654;DHT22;24320;56.980;24.336;2024-03-02T08:55:24;7.40;99.90
28654;DHT22;24320;56.980;24.336;2024-03-02T08:57:51;7.30;99.90
28654;DHT22;24320;56.980;24.336;2024-03-02T09:00:18;7.30;99.90
28654;DHT22;24320;56.980;24.336;2024-03-02T09:02:46;7.20;99.90
28654;DHT22;24320;56.980;24.336;2024-03-02T09:05:13;7.20;99.90
28654;DHT22;24320;56.980;24.336;2024-03-02T09:07:41;7.30;99.90
28654;DHT22;24320;56.980;24.336;2024-03-02T09:10:09;7.40;99.90
28654;DHT22;24320;56.980;24.336;2024-03-02T09:12:37;7.60;99.90
28654;DHT22;24320;56.980;24.336;2024-03-02T09:15:05;7.60;99.90
28654;DHT22;24320;56.980;24.336;2024-03-02T09:17:34;7.60;99.90
28654;DHT22;24320;56.980;24.336;2024-03-02T09:20:02;7.60;99.90
28654;DHT22;24320;56.980;24.336;2024-03-02T09:22:30;7.50;99.90
28654;DHT22;24320;56.980;24.336;2024-03-02T09:24:58;7.50;99.90
28654;DHT22;24320;56.980;24.336;2024-03-02T09:27:26;7.40;99.90
28654;DHT22;24320;56.980;24.336;2024-03-02T09:29:53;7.30;99.90
28654;DHT22;24320;56.980;24.336;2024-03-02T09:32:20;7.30;99.90
28654;DHT22;24320;56.980;24.336;2024-03-02T09:34:47;7.30;99.90
28654;DHT22;24320;56.980;24.336;2024-03-02T09:37:15;7.30;99.90
28654;DHT22;24320;56.980;24.336;2024-03-02T09:39:43;7.40;99.90
28654;DHT22;24320;56.980;24.336;2024-03-02T09:42:12;7.50;99.90
28654;DHT22;24320;56.980;24.336;2024-03-02T09:44:39;7.40;99.90
28654;DHT22;24320;56.980;24.336;2024-03-02T09:47:07;7.50;99.90
28654;DHT22;24320;56.980;24.336;2024-03-02T09:49:35;7.40;99.90
28654;DHT22;24320;56.980;24.336;2024-03-02T09:52:05;7.50;99.90
28654;DHT22;24320;56.980;24.336;2024-03-02T09:54:33;7.60;99.90
28654;DHT22;24320;56.980;24.336;2024-03-02T09:57:03;7.70;99.90
28654;DHT22;24320;56.980;24.336;2024-03-02T09:59:31;7.80;99.90
28654;DHT22;24320;56.980;24.336;2024-03-02T10:01:59;7.80;99.90
28654;DHT22;24320;56.980;24.336;2024-03-02T10:04:28;7.90;99.90
28654;DHT22;24320;56.980;24.336;2024-03-02T10:09:43;8.00;99.90
28654;DHT22;24320;56.980;24.336;2024-03-02T10:12:11;8.00;99.90
28654;DHT22;24320;56.980;24.336;2024-03-02T10:14:39;7.90;99.90
28654;DHT22;24320;56.980;24.336;2024-03-02T10:17:08;8.00;99.90
28654;DHT22;24320;56.980;24.336;2024-03-02T10:19:36;8.10;99.90
28654;DHT22;24320;56.980;24.336;2024-03-02T10:22:05;8.10;99.90
28654;DHT22;24320;56.980;24.336;2024-03-02T10:24:43;8.20;99.90
28654;DHT22;24320;56.980;24.336;2024-03-02T10:27:26;8.20;99.90
28654;DHT22;24320;56.980;24.336;2024-03-02T10:29:53;8.40;99.90
28654;DHT22;24320;56.980;24.336;2024-03-02T10:32:22;8.40;99.90
28654;DHT22;24320;56.980;24.336;2024-03-02T10:34:50;8.40;99.90
28654;DHT22;24320;56.980;24.336;2024-03-02T10:37:17;8.50;99.90
28654;DHT22;24320;56.980;24.336;2024-03-02T10:39:46;8.50;99.90
28654;DHT22;24320;56.980;24.336;2024-03-02T10:42:14;8.50;99.90
28654;DHT22;24320;56.980;24.336;2024-03-02T10:44:42;8.50;99.90
28654;DHT22;24320;56.980;24.336;2024-03-02T10:47:12;8.40;99.90
28654;DHT22;24320;56.980;24.336;2024-03-02T10:49:41;8.50;99.90
28654;DHT22;24320;56.980;24.336;2024-03-02T10:52:08;8.60;99.90
28654;DHT22;24320;56.980;24.336;2024-03-02T10:54:36;8.60;99.90
28654;DHT22;24320;56.980;24.336;2024-03-02T10:57:04;8.60;99.90
28654;DHT22;24320;56.980;24.336;2024-03-02T10:59:35;8.50;99.90
28654;DHT22;24320;56.980;24.336;2024-03-02T11:02:04;8.50;99.90
28654;DHT22;24320;56.980;24.336;2024-03-02T11:04:32;8.40;99.90
28654;DHT22;24320;56.980;24.336;2024-03-02T11:07:07;8.30;99.90
28654;DHT22;24320;56.980;24.336;2024-03-02T11:09:41;8.30;99.90
28654;DHT22;24320;56.980;24.336;2024-03-02T11:14:52;8.40;99.90
28654;DHT22;24320;56.980;24.336;2024-03-02T11:17:19;8.50;99.90
28654;DHT22;24320;56.980;24.336;2024-03-02T11:19:47;8.60;99.90
28654;DHT22;24320;56.980;24.336;2024-03-02T11:22:15;8.60;99.90
28654;DHT22;24320;56.980;24.336;2024-03-02T11:24:50;8.70;99.90
28654;DHT22;24320;56.980;24.336;2024-03-02T11:33:05;8.60;99.90
28654;DHT22;24320;56.980;24.336;2024-03-02T11:35:41;8.50;99.90
28654;DHT22;24320;56.980;24.336;2024-03-02T11:38:15;8.50;99.90
28654;DHT22;24320;56.980;24.336;2024-03-02T11:40:42;8.60;99.90
28654;DHT22;24320;56.980;24.336;2024-03-02T11:43:09;8.60;99.90
28654;DHT22;24320;56.980;24.336;2024-03-02T11:45:38;8.70;99.90
28654;DHT22;24320;56.980;24.336;2024-03-02T11:48:08;8.70;99.90
28654;DHT22;24320;56.980;24.336;2024-03-02T11:50:49;8.90;99.90
28654;DHT22;24320;56.980;24.336;2024-03-02T11:53:17;9.00;99.90
28654;DHT22;24320;56.980;24.336;2024-03-02T11:55:45;9.10;99.90
28654;DHT22;24320;56.980;24.336;2024-03-02T11:58:15;9.00;99.90
28654;DHT22;24320;56.980;24.336;2024-03-02T12:00:50;9.00;99.90
28654;DHT22;24320;56.980;24.336;2024-03-02T12:03:17;8.90;99.90
28654;DHT22;24320;56.980;24.336;2024-03-02T12:05:44;8.80;99.90
28654;DHT22;24320;56.980;24.336;2024-03-02T12:08:14;8.80;99.90
28654;DHT22;24320;56.980;24.336;2024-03-02T12:10:41;8.80;99.90
28654;DHT22;24320;56.980;24.336;2024-03-02T12:13:10;8.80;99.90
28654;DHT22;24320;56.980;24.336;2024-03-02T12:15:38;8.80;99.90
28654;DHT22;24320;56.980;24.336;2024-03-02T12:18:06;8.80;99.90
28654;DHT22;24320;56.980;24.336;2024-03-02T12:20:33;8.90;99.90
28654;DHT22;24320;56.980;24.336;2024-03-02T12:23:02;8.90;99.90
28654;DHT22;24320;56.980;24.336;2024-03-02T12:25:31;8.90;99.90
28654;DHT22;24320;56.980;24.336;2024-03-02T12:28:01;8.90;99.90
28654;DHT22;24320;56.980;24.336;2024-03-02T12:30:30;8.90;99.90
28654;DHT22;24320;56.980;24.336;2024-03-02T12:32:58;9.00;99.90
28654;DHT22;24320;56.980;24.336;2024-03-02T12:35:25;9.00;99.90
28654;DHT22;24320;56.980;24.336;2024-03-02T12:37:53;9.10;99.90
28654;DHT22;24320;56.980;24.336;2024-03-02T12:40:21;9.00;99.90
28654;DHT22;24320;56.980;24.336;2024-03-02T12:42:50;9.00;99.90
28654;DHT22;24320;56.980;24.336;2024-03-02T12:45:17;8.90;99.90
28654;DHT22;24320;56.980;24.336;2024-03-02T12:47:52;8.90;99.90
28654;DHT22;24320;56.980;24.336;2024-03-02T12:50:20;8.80;99.90
28654;DHT22;24320;56.980;24.336;2024-03-02T12:52:53;8.70;99.90
28654;DHT22;24320;56.980;24.336;2024-03-02T12:55:22;8.70;99.90
28654;DHT22;24320;56.980;24.336;2024-03-02T12:57:50;8.70;99.90
28654;DHT22;24320;56.980;24.336;2024-03-02T13:00:19;8.70;99.90
28654;DHT22;24320;56.980;24.336;2024-03-02T13:02:47;8.70;99.90
28654;DHT22;24320;56.980;24.336;2024-03-02T13:05:15;8.70;99.90
28654;DHT22;24320;56.980;24.336;2024-03-02T13:07:42;8.80;99.90
28654;DHT22;24320;56.980;24.336;2024-03-02T13:10:10;8.80;99.90
28654;DHT22;24320;56.980;24.336;2024-03-02T13:12:37;8.90;99.90
28654;DHT22;24320;56.980;24.336;2024-03-02T13:15:05;8.90;99.90
28654;DHT22;24320;56.980;24.336;2024-03-02T13:17:36;8.90;99.90
28654;DHT22;24320;56.980;24.336;2024-03-02T13:20:05;9.00;99.90
28654;DHT22;24320;56.980;24.336;2024-03-02T13:22:37;9.00;99.90
28654;DHT22;24320;56.980;24.336;2024-03-02T13:25:05;9.00;99.90
28654;DHT22;24320;56.980;24.336;2024-03-02T13:27:33;9.00;99.90
28654;DHT22;24320;56.980;24.336;2024-03-02T13:30:02;9.10;99.90
28654;DHT22;24320;56.980;24.336;2024-03-02T13:32:29;9.00;99.90
28654;DHT22;24320;56.980;24.336;2024-03-02T13:34:57;9.00;99.90
28654;DHT22;24320;56.980;24.336;2024-03-02T13:37:24;8.90;99.90
28654;DHT22;24320;56.980;24.336;2024-03-02T13:39:50;8.90;99.90
28654;DHT22;24320;56.980;24.336;2024-03-02T13:42:18;9.00;99.90
28654;DHT22;24320;56.980;24.336;2024-03-02T13:44:45;9.00;99.90
28654;DHT22;24320;56.980;24.336;2024-03-02T13:47:14;9.00;99.90
28654;DHT22;24320;56.980;24.336;2024-03-02T13:49:41;9.00;99.90
28654;DHT22;24320;56.980;24.336;2024-03-02T13:52:14;8.90;99.90
28654;DHT22;24320;56.980;24.336;2024-03-02T13:54:43;8.90;99.90
28654;DHT22;24320;56.980;24.336;2024-03-02T13:57:11;8.80;99.90
28654;DHT22;24320;56.980;24.336;2024-03-02T13:59:39;8.70;99.90
28654;DHT22;24320;56.980;24.336;2024-03-02T14:02:07;8.70;99.90
28654;DHT22;24320;56.980;24.336;2024-03-02T14:04:36;8.60;99.90
28654;DHT22;24320;56.980;24.336;2024-03-02T14:07:05;8.60;99.90
28654;DHT22;24320;56.980;24.336;2024-03-02T14:09:35;8.50;99.90
28654;DHT22;24320;56.980;24.336;2024-03-02T14:12:04;8.50;99.90
28654;DHT22;24320;56.980;24.336;2024-03-02T14:14:32;8.50;99.90
28654;DHT22;24320;56.980;24.336;2024-03-02T14:16:59;8.40;99.90
28654;DHT22;24320;56.980;24.336;2024-03-02T14:19:41;8.40;99.90
28654;DHT22;24320;56.980;24.336;2024-03-02T14:22:08;8.30;99.90
28654;DHT22;24320;56.980;24.336;2024-03-02T14:24:35;8.30;99.90
28654;DHT22;24320;56.980;24.336;2024-03-02T14:27:02;8.20;99.90
28654;DHT22;24320;56.980;24.336;2024-03-02T14:29:45;8.20;99.90
28654;DHT22;24320;56.980;24.336;2024-03-02T14:32:12;8.10;99.90
28654;DHT22;24320;56.980;24.336;2024-03-02T14:34:39;8.00;99.90
28654;DHT22;24320;56.980;24.336;2024-03-02T14:37:06;8.00;99.90
28654;DHT22;24320;56.980;24.336;2024-03-02T14:39:34;7.90;99.90
28654;DHT22;24320;56.980;24.336;2024-03-02T14:42:06;7.80;99.90
28654;DHT22;24320;56.980;24.336;2024-03-02T14:44:34;7.80;99.90
28654;DHT22;24320;56.980;24.336;2024-03-02T14:47:02;7.70;99.90
28654;DHT22;24320;56.980;24.336;2024-03-02T14:49:32;7.70;99.90
28654;DHT22;24320;56.980;24.336;2024-03-02T14:52:03;7.70;99.90
28654;DHT22;24320;56.980;24.336;2024-03-02T14:54:34;7.70;99.90
28654;DHT22;24320;56.980;24.336;2024-03-02T14:57:02;7.60;99.90
28654;DHT22;24320;56.980;24.336;2024-03-02T14:59:30;7.50;99.90
28654;DHT22;24320;56.980;24.336;2024-03-02T15:01:57;7.40;99.90
28654;DHT22;24320;56.980;24.336;2024-03-02T15:04:25;7.30;99.90
28654;DHT22;24320;56.980;24.336;2024-03-02T15:06:55;7.20;99.90
28654;DHT22;24320;56.980;24.336;2024-03-02T15:09:22;7.20;99.90
28654;DHT22;24320;56.980;24.336;2024-03-02T15:11:49;7.10;99.90
28654;DHT22;24320;56.980;24.336;2024-03-02T15:14:16;7.00;99.90
28654;DHT22;24320;56.980;24.336;2024-03-02T15:16:43;7.00;99.90
28654;DHT22;24320;56.980;24.336;2024-03-02T15:19:10;6.90;99.90
28654;DHT22;24320;56.980;24.336;2024-03-02T15:21:37;6.80;99.90
28654;DHT22;24320;56.980;24.336;2024-03-02T15:24:04;6.70;99.90
28654;DHT22;24320;56.980;24.336;2024-03-02T15:26:32;6.80;99.90
28654;DHT22;24320;56.980;24.336;2024-03-02T15:28:59;6.70;99.90
28654;DHT22;24320;56.980;24.336;2024-03-02T15:31:26;6.60;99.90
28654;DHT22;24320;56.980;24.336;2024-03-02T15:33:54;6.50;99.90
28654;DHT22;24320;56.980;24.336;2024-03-02T15:36:24;6.50;99.90
28654;DHT22;24320;56.980;24.336;2024-03-02T15:38:51;6.40;99.90
28654;DHT22;24320;56.980;24.336;2024-03-02T15:41:19;6.40;99.90
28654;DHT22;24320;56.980;24.336;2024-03-02T15:43:51;6.30;99.90
28654;DHT22;24320;56.980;24.336;2024-03-02T15:46:25;6.20;99.90
28654;DHT22;24320;56.980;24.336;2024-03-02T15:48:52;6.30;99.90
28654;DHT22;24320;56.980;24.336;2024-03-02T15:51:20;6.30;99.90
28654;DHT22;24320;56.980;24.336;2024-03-02T15:53:47;6.30;99.90
28654;DHT22;24320;56.980;24.336;2024-03-02T15:56:15;6.30;99.90